メインページ
METAR-TAF:

METAR-TAF

空港 :

メンドーサ, アルゼンチン

緯度: 32-50S, 経度: 068-47W, 海抜: 705m

現時点の気象観測

当レポートは1時間5分前の05:00(UTC)に作成
南西の風 3kt
気温 12°C
湿度 58%
気圧 1021 hPa
視程10km以上
1,500メートル以下は雲なし、積乱雲なし

METAR: SAME 210500Z 23003KT CAVOK 12/04 Q1021

時間: 03:05 (06:05 UTC)

予報

当レポートは1時間5分前の05:00(UTC)に作成
予報は21日の 06時(UTC)から 22日の 06時(UTC)まで有効
南/南西の風 5kt
視程10km以上
高度3000ftの雲はほとんどない
高度8000ftの雲は散在している
21日の 15時(UTC)から 21日の 17時(UTC)まで徐々に
北東の風 10kt
視程10km以上
高度4000ftの雲はほとんどない
22日の 02時(UTC)から 22日の 04時(UTC)まで徐々に
南/南西の風 5kt
視程10km以上
1,500メートル以下は雲なし、積乱雲なし

TAF: SAME 210500Z 2106/2206 20005KT 9999 FEW030 SCT080 TN08/2110Z TX23/2120Z BECMG 2115/2117 05010KT 9999 FEW040 BECMG 2202/2204 20005KT CAVOK

4,000以上の空港の気象観測と天気予報(METAR報とTAF報)

利用可能な観測所は地図上に黄色い丸と赤い丸で示す。

丸の上にカーソルを重ねると観測所名を参照できる。

次にクリックすると気象観測と天気予報を参照できる。

マップの切り替え:黒色「×」印の緑ボタンをクリックして拡大、「-」印の緑ボタンをクリックして縮小、緑色の三角印をクリックして隣りの地図に切り替え


METAR-TAF: